createdAt,value
2022-11-27T00:03:24.176Z,101755.13
2022-11-27T00:08:55.434Z,101748.25
2022-11-27T00:14:25.631Z,101733.78
2022-11-27T00:19:52.077Z,101742.47
2022-11-27T00:25:18.349Z,101744.28
2022-11-27T00:30:44.204Z,101740.00
2022-11-27T00:36:10.779Z,101731.44
2022-11-27T00:41:36.201Z,101723.78
2022-11-27T00:47:01.159Z,101719.56
2022-11-27T00:52:29.928Z,101707.50
2022-11-27T00:58:04.851Z,101684.22
2022-11-27T01:03:29.410Z,101671.47
2022-11-27T01:08:56.424Z,101667.06
2022-11-27T01:14:27.840Z,101652.44
2022-11-27T01:19:52.680Z,101642.00
2022-11-27T01:25:21.917Z,101646.25
2022-11-27T01:30:51.892Z,101646.25
2022-11-27T01:36:27.841Z,101639.47
2022-11-27T01:41:55.377Z,101649.97
2022-11-27T01:47:44.437Z,101652.59
2022-11-27T01:53:13.369Z,101668.19
2022-11-27T01:58:42.567Z,101659.75
2022-11-27T02:04:08.878Z,101661.84
2022-11-27T02:09:34.682Z,101651.53
2022-11-27T02:15:15.842Z,101644.91
2022-11-27T02:20:56.972Z,101639.97
2022-11-27T02:26:40.057Z,101630.56
2022-11-27T02:32:13.430Z,101620.19
2022-11-27T02:37:43.360Z,101629.72
2022-11-27T02:43:14.638Z,101626.41
2022-11-27T02:48:50.091Z,101636.81
2022-11-27T02:54:31.632Z,101632.69
2022-11-27T03:00:01.532Z,101640.56
2022-11-27T03:05:38.354Z,101637.19
2022-11-27T03:11:13.896Z,101630.50
2022-11-27T03:16:43.066Z,101621.16
2022-11-27T03:22:34.143Z,101623.78
2022-11-27T03:28:06.473Z,101627.41
2022-11-27T03:33:38.193Z,101624.13
2022-11-27T03:39:15.728Z,101618.97
2022-11-27T03:44:48.951Z,101618.19
2022-11-27T03:50:29.641Z,101602.69
2022-11-27T03:56:10.198Z,101605.41
2022-11-27T04:01:40.999Z,101605.66
2022-11-27T04:07:05.990Z,101599.81
2022-11-27T04:12:36.373Z,101599.03
2022-11-27T04:18:01.154Z,101595.47
2022-11-27T04:23:25.510Z,101590.41
2022-11-27T04:28:59.217Z,101579.97
2022-11-27T04:34:37.781Z,101572.16
2022-11-27T04:40:03.187Z,101575.66
2022-11-27T04:45:27.966Z,101572.16
2022-11-27T04:50:55.757Z,101570.47
2022-11-27T04:56:19.238Z,101578.22
2022-11-27T05:01:51.142Z,101569.56
2022-11-27T05:07:18.593Z,101569.59
2022-11-27T05:12:46.512Z,101572.19
2022-11-27T05:18:18.989Z,101574.78
2022-11-27T05:23:53.422Z,101568.78
2022-11-27T05:29:19.666Z,101568.81
2022-11-27T05:34:45.096Z,101579.25
2022-11-27T05:40:20.565Z,101588.69
2022-11-27T05:45:45.075Z,101576.69
2022-11-27T05:51:18.471Z,101575.81
2022-11-27T05:56:47.475Z,101564.72
2022-11-27T06:02:29.647Z,101554.31
2022-11-27T06:08:00.508Z,101570.06
2022-11-27T06:13:23.674Z,101562.34
2022-11-27T06:18:54.630Z,101569.31
2022-11-27T06:24:23.237Z,101565.84
2022-11-27T06:29:54.597Z,101565.84
2022-11-27T06:35:19.053Z,101553.84
2022-11-27T06:40:51.550Z,101556.44
2022-11-27T06:46:23.519Z,101547.00
2022-11-27T06:51:49.241Z,101547.00
2022-11-27T06:57:18.140Z,101527.06
2022-11-27T07:02:42.747Z,101518.38
2022-11-27T07:08:16.979Z,101512.97
2022-11-27T07:13:47.021Z,101511.88
2022-11-27T07:19:12.917Z,101511.63
2022-11-27T07:24:42.865Z,101507.94
2022-11-27T07:30:17.543Z,101499.97
2022-11-27T07:35:42.662Z,101493.75
2022-11-27T07:41:17.316Z,101484.00
2022-11-27T07:46:48.794Z,101483.72
2022-11-27T07:52:17.858Z,101484.31
2022-11-27T07:57:48.146Z,101474.47
2022-11-27T08:03:15.386Z,101470.63
2022-11-27T08:15:05.374Z,101472.22
2022-11-27T08:21:05.639Z,101468.88
2022-11-27T08:26:30.121Z,101477.00
2022-11-27T08:31:59.121Z,101466.03
2022-11-27T08:37:34.348Z,101474.13
2022-11-27T08:43:04.856Z,101463.13
2022-11-27T08:48:41.753Z,101453.28
2022-11-27T08:54:22.844Z,101452.84
2022-11-27T08:59:49.345Z,101449.91
2022-11-27T09:05:18.262Z,101441.56
2022-11-27T09:10:54.805Z,101436.09
2022-11-27T09:16:24.904Z,101443.06
2022-11-27T09:21:50.477Z,101433.81
2022-11-27T09:27:27.318Z,101429.00
2022-11-27T09:33:03.361Z,101437.91
2022-11-27T09:38:29.099Z,101443.97
2022-11-27T09:44:22.132Z,101442.53
2022-11-27T09:49:53.872Z,101426.47
2022-11-27T09:55:25.389Z,101427.38
2022-11-27T10:01:01.747Z,101417.97
2022-11-27T10:06:36.667Z,101414.03
2022-11-27T10:12:23.478Z,101407.31
2022-11-27T10:18:10.340Z,101407.91
2022-11-27T10:24:10.169Z,101395.31
2022-11-27T10:29:48.931Z,101393.22
2022-11-27T10:35:20.187Z,101386.28
2022-11-27T10:41:00.921Z,101381.50
2022-11-27T10:46:35.456Z,101385.13
2022-11-27T10:52:07.493Z,101361.25
2022-11-27T10:57:48.479Z,101345.84
2022-11-27T11:03:22.502Z,101334.19
2022-11-27T11:09:13.372Z,101338.91
2022-11-27T11:14:46.972Z,101339.41
2022-11-27T11:20:26.526Z,101333.44
2022-11-27T11:25:58.386Z,101314.31
2022-11-27T11:31:27.503Z,101299.53
2022-11-27T11:36:59.489Z,101294.13
2022-11-27T11:42:53.625Z,101293.13
2022-11-27T11:48:30.012Z,101290.88
2022-11-27T11:54:07.324Z,101285.63
2022-11-27T11:59:45.743Z,101290.38
2022-11-27T12:05:53.187Z,101272.56
2022-11-27T12:11:18.987Z,101251.41
2022-11-27T12:17:00.163Z,101248.31
2022-11-27T12:22:38.537Z,101238.09
2022-11-27T12:28:15.463Z,101224.19
2022-11-27T12:34:10.635Z,101211.63
2022-11-27T12:39:39.037Z,101206.09
2022-11-27T12:45:12.590Z,101190.06
2022-11-27T12:50:51.143Z,101179.94
2022-11-27T12:56:27.086Z,101172.28
2022-11-27T13:01:59.354Z,101178.56
2022-11-27T13:07:43.205Z,101166.47
2022-11-27T13:13:11.797Z,101171.69
2022-11-27T13:18:46.207Z,101163.72
2022-11-27T13:24:16.988Z,101154.88
2022-11-27T13:29:49.944Z,101148.06
2022-11-27T13:35:30.012Z,101136.91
2022-11-27T13:47:05.663Z,101141.91
2022-11-27T13:52:30.313Z,101133.91
2022-11-27T13:57:59.632Z,101126.69
2022-11-27T14:03:29.462Z,101120.47
2022-11-27T14:09:05.654Z,101119.50
2022-11-27T14:14:33.081Z,101123.06
2022-11-27T14:20:13.881Z,101117.84
2022-11-27T14:25:38.611Z,101113.34
2022-11-27T14:31:17.257Z,101113.44
2022-11-27T14:36:41.132Z,101106.97
2022-11-27T14:42:09.045Z,101102.97
2022-11-27T14:47:36.570Z,101094.72
2022-11-27T14:53:06.333Z,101092.59
2022-11-27T14:58:40.044Z,101087.88
2022-11-27T15:04:09.654Z,101088.41
2022-11-27T15:09:39.061Z,101083.47
2022-11-27T15:15:19.345Z,101088.88
2022-11-27T15:20:50.034Z,101074.34
2022-11-27T15:26:22.501Z,101069.13
2022-11-27T15:32:00.014Z,101059.75
2022-11-27T15:37:28.993Z,101050.34
2022-11-27T15:42:53.927Z,101044.31
2022-11-27T15:48:21.200Z,101030.44
2022-11-27T15:53:54.593Z,101021.13
2022-11-27T15:59:20.992Z,101010.06
2022-11-27T16:04:45.409Z,101005.78
2022-11-27T16:10:33.498Z,101017.78
2022-11-27T16:15:59.408Z,101016.22
2022-11-27T16:21:29.714Z,101011.84
2022-11-27T16:26:59.200Z,101002.44
2022-11-27T16:32:26.248Z,100991.28
2022-11-27T16:37:52.947Z,100984.19
2022-11-27T16:43:23.528Z,100966.03
2022-11-27T16:48:56.090Z,100963.63
2022-11-27T16:54:19.240Z,100953.22
2022-11-27T16:59:45.407Z,100946.63
2022-11-27T17:05:27.678Z,100939.94
2022-11-27T17:10:56.134Z,100924.06
2022-11-27T17:16:35.577Z,100917.38
2022-11-27T17:21:59.176Z,100910.16
2022-11-27T17:27:29.477Z,100905.44
2022-11-27T17:33:00.352Z,100904.06
2022-11-27T17:38:36.817Z,100903.53
2022-11-27T17:44:04.530Z,100905.78
2022-11-27T17:49:29.586Z,100907.66
2022-11-27T17:54:59.153Z,100904.44
2022-11-27T18:00:37.366Z,100905.66
2022-11-27T18:06:09.266Z,100909.81
2022-11-27T18:11:38.889Z,100903.41
2022-11-27T18:17:17.607Z,100904.16
2022-11-27T18:22:48.856Z,100884.94
2022-11-27T18:28:15.767Z,100874.00
2022-11-27T18:33:51.838Z,100868.22
2022-11-27T18:39:26.622Z,100867.47
2022-11-27T18:45:02.047Z,100869.44
2022-11-27T18:50:29.590Z,100864.53
2022-11-27T18:55:57.120Z,100863.88
2022-11-27T19:01:23.658Z,100875.47
2022-11-27T19:07:03.435Z,100874.09
2022-11-27T19:12:33.141Z,100866.19
2022-11-27T19:18:03.166Z,100874.34
2022-11-27T19:23:39.028Z,100868.75
2022-11-27T19:29:09.052Z,100860.31
2022-11-27T19:34:40.343Z,100846.66
2022-11-27T19:40:09.287Z,100851.50
2022-11-27T19:45:53.572Z,100842.38
2022-11-27T19:51:21.265Z,100839.88
2022-11-27T19:56:46.259Z,100831.50
2022-11-27T20:02:16.501Z,100830.44
2022-11-27T20:07:40.896Z,100812.97
2022-11-27T20:13:04.828Z,100811.75
2022-11-27T20:18:38.263Z,100802.13
2022-11-27T20:24:08.778Z,100805.00
2022-11-27T20:29:32.442Z,100798.94
2022-11-27T20:34:58.958Z,100802.59
2022-11-27T20:46:15.411Z,100784.56
2022-11-27T20:51:42.969Z,100770.66
2022-11-27T20:57:07.678Z,100758.56
2022-11-27T21:02:34.019Z,100755.81
2022-11-27T21:08:01.397Z,100749.69
2022-11-27T21:13:36.154Z,100738.38
2022-11-27T21:19:05.820Z,100728.53
2022-11-27T21:24:34.710Z,100722.13
2022-11-27T21:30:00.712Z,100717.13
2022-11-27T21:35:31.686Z,100706.44
2022-11-27T21:40:57.752Z,100700.59
2022-11-27T21:46:25.324Z,100691.13
2022-11-27T21:51:52.858Z,100693.00
2022-11-27T21:57:24.304Z,100689.28
2022-11-27T22:02:49.294Z,100684.81
2022-11-27T22:08:15.681Z,100682.22
2022-11-27T22:13:57.702Z,100681.31
2022-11-27T22:19:29.682Z,100672.59
2022-11-27T22:24:59.999Z,100682.63
2022-11-27T22:30:27.224Z,100672.41
2022-11-27T22:35:52.115Z,100675.63
2022-11-27T22:41:16.904Z,100676.28
2022-11-27T22:46:45.818Z,100662.50
2022-11-27T22:52:11.359Z,100660.44
2022-11-27T22:57:39.727Z,100657.84
2022-11-27T23:03:06.555Z,100645.50
2022-11-27T23:08:35.296Z,100652.09
2022-11-27T23:14:06.536Z,100642.75
2022-11-27T23:19:41.849Z,100639.66
2022-11-27T23:25:05.843Z,100646.78
2022-11-27T23:30:44.935Z,100624.63
2022-11-27T23:36:14.952Z,100628.16
2022-11-27T23:41:44.877Z,100626.56
2022-11-27T23:47:13.047Z,100615.63
2022-11-27T23:52:44.943Z,100619.53
2022-11-27T23:58:24.621Z,100613.59
